createdAt,value
2019-03-06T00:00:39.494Z,150582.78
2019-03-06T00:03:07.991Z,150572.34
2019-03-06T00:05:36.730Z,150577.53
2019-03-06T00:08:05.564Z,150582.78
2019-03-06T00:10:34.193Z,150587.97
2019-03-06T00:13:02.658Z,150551.45
2019-03-06T00:15:31.151Z,150569.73
2019-03-06T00:17:59.639Z,150572.34
2019-03-06T00:20:28.111Z,150568.39
2019-03-06T00:22:56.590Z,150571.03
2019-03-06T00:25:25.076Z,150546.22
2019-03-06T00:27:53.556Z,150539.72
2019-03-06T00:30:22.022Z,150559.25
2019-03-06T00:32:50.527Z,150556.66
2019-03-06T00:35:39.009Z,150554.06
2019-03-06T00:38:07.494Z,150547.52
2019-03-06T00:40:46.620Z,150533.19
2019-03-06T00:43:15.117Z,150541.02
2019-03-06T00:45:43.581Z,150548.81
2019-03-06T00:48:12.135Z,150561.91
2019-03-06T00:50:40.633Z,150572.34
2019-03-06T00:53:09.128Z,150573.64
2019-03-06T00:55:37.595Z,150569.73
2019-03-06T00:58:06.062Z,150572.34
2019-03-06T01:00:34.523Z,150590.63
2019-03-06T01:03:03.092Z,150580.19
2019-03-06T01:05:31.548Z,150590.63
2019-03-06T01:08:00.040Z,150589.28
2019-03-06T01:10:28.578Z,150595.81
2019-03-06T01:12:57.064Z,150577.53
2019-03-06T01:15:25.526Z,150565.80
2019-03-06T01:17:54.009Z,150573.64
2019-03-06T01:20:22.746Z,150577.53
2019-03-06T01:22:51.215Z,150561.91
2019-03-06T01:25:20.928Z,150569.73
2019-03-06T01:27:49.406Z,150564.50
2019-03-06T01:30:21.852Z,150567.09
2019-03-06T01:33:01.078Z,150569.73
2019-03-06T01:35:34.204Z,150559.25
2019-03-06T01:38:20.516Z,150551.45
2019-03-06T01:40:50.637Z,150564.50
2019-03-06T01:43:20.764Z,150551.45
2019-03-06T01:45:49.247Z,150555.36
2019-03-06T01:48:17.739Z,150546.22
2019-03-06T01:50:46.199Z,150547.52
2019-03-06T01:53:14.674Z,150559.25
2019-03-06T01:55:43.225Z,150556.66
2019-03-06T01:58:11.697Z,150544.92
2019-03-06T02:00:40.525Z,150554.06
2019-03-06T02:03:08.985Z,150551.45
2019-03-06T02:05:37.458Z,150535.78
2019-03-06T02:08:06.357Z,150537.08
2019-03-06T02:10:34.854Z,150518.84
2019-03-06T02:13:04.073Z,150526.64
2019-03-06T02:15:32.564Z,150526.64
2019-03-06T02:18:01.024Z,150520.14
2019-03-06T02:20:29.504Z,150517.50
2019-03-06T02:22:58.039Z,150521.44
2019-03-06T02:25:26.810Z,150497.97
2019-03-06T02:27:55.283Z,150501.88
2019-03-06T02:30:25.210Z,150488.83
2019-03-06T02:32:53.677Z,150497.97
2019-03-06T02:35:22.173Z,150496.62
2019-03-06T02:37:50.652Z,150477.05
2019-03-06T02:40:19.137Z,150474.45
2019-03-06T02:42:47.615Z,150461.42
2019-03-06T02:45:22.384Z,150474.45
2019-03-06T02:47:50.857Z,150473.16
2019-03-06T02:50:19.888Z,150462.72
2019-03-06T02:52:48.341Z,150471.86
2019-03-06T02:55:18.265Z,150457.53
2019-03-06T02:57:57.188Z,150460.13
2019-03-06T03:00:34.789Z,150454.88
2019-03-06T03:03:08.688Z,150473.16
2019-03-06T03:05:38.813Z,150456.19
2019-03-06T03:08:07.351Z,150445.75
2019-03-06T03:10:35.835Z,150441.84
2019-03-06T03:13:04.449Z,150424.88
2019-03-06T03:15:32.923Z,150420.98
2019-03-06T03:18:01.412Z,150428.81
2019-03-06T03:20:29.900Z,150428.81
2019-03-06T03:22:58.349Z,150418.39
2019-03-06T03:25:27.105Z,150431.41
2019-03-06T03:27:55.588Z,150423.58
2019-03-06T03:30:24.109Z,150426.22
2019-03-06T03:32:52.618Z,150426.22
2019-03-06T03:35:21.105Z,150417.09
2019-03-06T03:37:49.590Z,150415.78
2019-03-06T03:40:18.097Z,150407.95
2019-03-06T03:42:46.583Z,150418.39
2019-03-06T03:45:16.493Z,150394.88
2019-03-06T03:47:44.945Z,150394.88
2019-03-06T03:50:13.575Z,150394.88
2019-03-06T03:52:42.323Z,150406.66
2019-03-06T03:55:13.593Z,150398.81
2019-03-06T03:57:42.039Z,150405.36
2019-03-06T04:00:18.957Z,150392.28
2019-03-06T04:02:47.864Z,150398.81
2019-03-06T04:05:16.493Z,150390.98
2019-03-06T04:07:44.961Z,150394.88
2019-03-06T04:10:14.991Z,150402.70
2019-03-06T04:12:43.588Z,150379.25
2019-03-06T04:15:17.041Z,150380.55
2019-03-06T04:17:45.514Z,150368.81
2019-03-06T04:20:18.240Z,150360.98
2019-03-06T04:22:46.692Z,150366.22
2019-03-06T04:25:15.259Z,150363.58
2019-03-06T04:27:43.733Z,150358.39
2019-03-06T04:30:14.624Z,150353.14
2019-03-06T04:32:43.151Z,150353.14
2019-03-06T04:35:11.934Z,150333.62
2019-03-06T04:37:40.395Z,150340.12
2019-03-06T04:40:11.491Z,150342.72
2019-03-06T04:42:39.964Z,150332.28
2019-03-06T04:45:12.980Z,150337.53
2019-03-06T04:47:41.442Z,150340.12
2019-03-06T04:50:15.030Z,150333.62
2019-03-06T04:52:43.847Z,150327.09
2019-03-06T04:55:14.491Z,150304.94
2019-03-06T04:57:42.964Z,150295.80
2019-03-06T05:00:15.857Z,150314.06
2019-03-06T05:02:44.336Z,150321.84
2019-03-06T05:05:12.821Z,150310.12
2019-03-06T05:07:41.289Z,150282.78
2019-03-06T05:10:11.215Z,150308.83
2019-03-06T05:12:39.700Z,150298.41
2019-03-06T05:15:11.121Z,150294.50
2019-03-06T05:17:41.261Z,150287.97
2019-03-06T05:20:09.852Z,150290.56
2019-03-06T05:22:38.335Z,150265.81
2019-03-06T05:25:07.173Z,150280.14
2019-03-06T05:27:35.645Z,150280.14
2019-03-06T05:30:05.837Z,150272.34
2019-03-06T05:32:36.113Z,150276.25
2019-03-06T05:35:07.581Z,150261.92
2019-03-06T05:38:00.765Z,150271.00
2019-03-06T05:40:29.248Z,150267.11
2019-03-06T05:42:57.722Z,150261.92
2019-03-06T05:45:26.211Z,150273.66
2019-03-06T05:47:54.677Z,150248.84
2019-03-06T05:50:23.174Z,150256.69
2019-03-06T05:52:51.644Z,150265.81
2019-03-06T05:55:20.105Z,150269.70
2019-03-06T05:57:48.687Z,150261.92
2019-03-06T06:00:21.472Z,150263.22
2019-03-06T06:02:49.985Z,150276.25
2019-03-06T06:05:18.457Z,150280.14
2019-03-06T06:07:46.956Z,150269.70
2019-03-06T06:10:16.194Z,150278.84
2019-03-06T06:12:44.671Z,150291.86
2019-03-06T06:15:14.772Z,150314.06
2019-03-06T06:17:43.438Z,150298.41
2019-03-06T06:20:14.414Z,150311.42
2019-03-06T06:22:59.791Z,150334.94
2019-03-06T06:25:29.917Z,150325.80
2019-03-06T06:27:58.392Z,150337.53
2019-03-06T06:30:26.874Z,150342.72
2019-03-06T06:32:55.360Z,150360.98
2019-03-06T06:35:24.204Z,150367.52
2019-03-06T06:37:52.762Z,150367.52
2019-03-06T06:40:21.274Z,150367.52
2019-03-06T06:42:49.755Z,150396.22
2019-03-06T06:45:18.402Z,150402.70
2019-03-06T06:48:07.178Z,150424.88
2019-03-06T06:50:36.221Z,150437.95
2019-03-06T06:53:25.436Z,150434.00
2019-03-06T06:56:02.768Z,150448.39
2019-03-06T06:58:49.170Z,150444.44
2019-03-06T07:01:37.491Z,150460.13
2019-03-06T07:04:19.132Z,150478.41
2019-03-06T07:06:51.940Z,150495.33
2019-03-06T07:09:38.241Z,150500.56
2019-03-06T07:12:17.312Z,150520.14
2019-03-06T07:15:03.162Z,150542.31
2019-03-06T07:17:33.273Z,150548.81
2019-03-06T07:20:03.426Z,150582.78
2019-03-06T07:25:31.822Z,150601.06
2019-03-06T07:28:10.901Z,150607.55
2019-03-06T07:30:41.009Z,150621.94
2019-03-06T07:33:16.846Z,150645.42
2019-03-06T07:36:00.256Z,150655.86
2019-03-06T07:38:29.205Z,150709.37
2019-03-06T07:41:17.352Z,150732.87
2019-03-06T07:43:53.030Z,150757.70
2019-03-06T07:46:26.220Z,150802.09
2019-03-06T07:49:02.216Z,150870.03
2019-03-06T07:51:41.277Z,150939.25
2019-03-06T07:54:14.090Z,151033.39
2019-03-06T07:56:45.938Z,151060.81
2019-03-06T07:59:14.428Z,151050.34
2019-03-06T08:01:52.488Z,151085.72
2019-03-06T08:04:20.975Z,151158.94
2019-03-06T08:07:00.074Z,151206.00
2019-03-06T08:09:28.562Z,151291.06
2019-03-06T08:11:58.668Z,151382.61
2019-03-06T08:14:28.802Z,151463.77
2019-03-06T08:16:58.910Z,151538.42
2019-03-06T08:19:41.020Z,151544.94
2019-03-06T08:22:11.390Z,151620.94
2019-03-06T08:24:57.781Z,151723.11
2019-03-06T08:27:26.429Z,151801.75
2019-03-06T08:29:54.938Z,151880.41
2019-03-06T08:32:25.042Z,151885.62
2019-03-06T08:34:53.519Z,151927.58
2019-03-06T08:37:21.988Z,152014.16
2019-03-06T08:39:50.469Z,151965.63
2019-03-06T08:42:18.935Z,152050.84
2019-03-06T08:44:47.413Z,152074.48
2019-03-06T08:47:20.185Z,152073.13
2019-03-06T08:49:59.346Z,152115.11
2019-03-06T08:52:32.414Z,152063.94
2019-03-06T08:55:08.629Z,152140.06
2019-03-06T08:57:56.670Z,152133.48
2019-03-06T09:00:33.106Z,152229.31
2019-03-06T09:03:17.448Z,152264.78
2019-03-06T09:05:47.560Z,152258.19
2019-03-06T09:08:29.785Z,152263.47
2019-03-06T09:11:03.171Z,152315.97
2019-03-06T09:13:38.094Z,152410.50
2019-03-06T09:16:14.223Z,152431.50
2019-03-06T09:18:44.325Z,152495.84
2019-03-06T09:21:17.161Z,152515.56
2019-03-06T09:23:50.199Z,152541.86
2019-03-06T09:26:38.667Z,152569.41
2019-03-06T09:29:24.773Z,152610.19
2019-03-06T09:31:54.885Z,152523.45
2019-03-06T09:34:25.002Z,152501.13
2019-03-06T09:37:10.207Z,152528.69
2019-03-06T09:39:52.585Z,152494.55
2019-03-06T09:42:31.750Z,152533.97
2019-03-06T09:45:01.866Z,152582.59
2019-03-06T09:47:37.952Z,152578.61
2019-03-06T09:50:27.437Z,152623.37
2019-03-06T09:53:09.224Z,152681.16
2019-03-06T09:55:42.586Z,152733.73
2019-03-06T09:58:12.758Z,152817.88
2019-03-06T10:00:45.362Z,152723.22
2019-03-06T10:03:31.813Z,152779.78
2019-03-06T10:06:04.884Z,152813.94
2019-03-06T10:08:35.006Z,152728.50
2019-03-06T10:11:05.192Z,152798.14
2019-03-06T10:13:52.217Z,152833.67
2019-03-06T10:16:25.144Z,152848.11
2019-03-06T10:18:55.248Z,152833.67
2019-03-06T10:21:25.654Z,152867.84
2019-03-06T10:23:53.939Z,152878.36
2019-03-06T10:26:22.664Z,152987.61
2019-03-06T10:28:51.136Z,153028.41
2019-03-06T10:31:19.933Z,152983.63
2019-03-06T10:33:48.386Z,152975.78
2019-03-06T10:36:16.862Z,153091.56
2019-03-06T10:38:45.346Z,153069.19
2019-03-06T10:41:13.990Z,153165.25
2019-03-06T10:43:48.877Z,153302.22
2019-03-06T10:46:12.659Z,153469.50
2019-03-06T10:48:41.154Z,153518.27
2019-03-06T10:51:09.899Z,153572.28
2019-03-06T10:56:08.720Z,153223.14
2019-03-06T10:58:37.217Z,153346.97
2019-03-06T11:01:06.318Z,153167.88
2019-03-06T11:03:36.519Z,153038.92
2019-03-06T11:06:05.886Z,153146.81
2019-03-06T11:08:34.446Z,152998.14
2019-03-06T11:11:02.978Z,152894.17
2019-03-06T11:13:31.535Z,152890.19
2019-03-06T11:15:59.996Z,152815.25
2019-03-06T11:18:28.551Z,152813.94
2019-03-06T11:20:57.531Z,152841.58
2019-03-06T11:23:26.026Z,152761.36
2019-03-06T11:25:54.558Z,152708.78
2019-03-06T11:28:23.042Z,152704.81
2019-03-06T11:30:59.372Z,152717.98
2019-03-06T11:33:27.994Z,152654.91
2019-03-06T11:35:58.878Z,152710.09
2019-03-06T11:38:28.092Z,152673.27
2019-03-06T11:40:57.300Z,152631.22
2019-03-06T11:43:25.849Z,152599.69
2019-03-06T11:45:54.391Z,152615.47
2019-03-06T11:48:22.875Z,152607.58
2019-03-06T11:50:51.397Z,152583.89
2019-03-06T11:53:20.027Z,152639.11
2019-03-06T11:55:48.629Z,152619.41
2019-03-06T11:58:18.724Z,152649.62
2019-03-06T12:00:47.599Z,152635.19
2019-03-06T12:03:18.928Z,152625.98
2019-03-06T12:05:47.904Z,152583.89
2019-03-06T12:08:18.434Z,152600.98
2019-03-06T12:10:47.229Z,152597.06
2019-03-06T12:13:17.369Z,152562.87
2019-03-06T12:15:48.089Z,152565.48
2019-03-06T12:18:16.708Z,152591.78
2019-03-06T12:20:45.356Z,152553.67
2019-03-06T12:23:13.910Z,152547.08
2019-03-06T12:25:42.719Z,152528.69
2019-03-06T12:28:13.122Z,152511.63
2019-03-06T12:30:42.011Z,152536.58
2019-03-06T12:33:12.165Z,152541.86
2019-03-06T12:35:40.618Z,152551.06
2019-03-06T12:38:10.833Z,152554.97
2019-03-06T12:40:39.458Z,152564.19
2019-03-06T12:43:07.941Z,152569.41
2019-03-06T12:45:36.425Z,152573.38
2019-03-06T12:48:18.150Z,152578.61
2019-03-06T12:50:53.927Z,152597.06
2019-03-06T12:53:16.811Z,152614.17
2019-03-06T12:55:45.291Z,152657.52
2019-03-06T12:58:13.749Z,152694.30
2019-03-06T13:00:42.502Z,152716.69
2019-03-06T13:03:10.985Z,152694.30
2019-03-06T13:05:39.467Z,152696.95
2019-03-06T13:08:07.931Z,152741.63
2019-03-06T13:10:36.422Z,152762.66
2019-03-06T13:13:04.978Z,152757.44
2019-03-06T13:15:33.940Z,152750.84
2019-03-06T13:18:02.409Z,152753.45
2019-03-06T13:20:30.955Z,152757.44
2019-03-06T13:22:59.412Z,152762.66
2019-03-06T13:25:27.905Z,152774.48
2019-03-06T13:27:57.593Z,152729.81
2019-03-06T13:30:27.999Z,152717.98
2019-03-06T13:33:00.809Z,152706.16
2019-03-06T13:35:30.937Z,152727.19
2019-03-06T13:37:59.465Z,152744.25
2019-03-06T13:40:28.018Z,152744.25
2019-03-06T13:42:57.504Z,152744.25
2019-03-06T13:45:26.065Z,152754.77
2019-03-06T13:47:54.536Z,152739.02
2019-03-06T13:50:24.527Z,152721.91
2019-03-06T13:52:53.351Z,152723.22
2019-03-06T13:55:21.905Z,152714.02
2019-03-06T13:57:50.510Z,152723.22
2019-03-06T14:00:25.573Z,152735.05
2019-03-06T14:02:54.166Z,152758.73
2019-03-06T14:05:23.696Z,152774.48
2019-03-06T14:07:56.424Z,152774.48
2019-03-06T14:10:25.960Z,152760.05
2019-03-06T14:12:54.667Z,152779.78
2019-03-06T14:15:24.357Z,152771.88
2019-03-06T14:17:52.980Z,152773.19
2019-03-06T14:20:23.270Z,152770.56
2019-03-06T14:22:51.988Z,152762.66
2019-03-06T14:25:21.312Z,152756.08
2019-03-06T14:27:49.902Z,152736.36
2019-03-06T14:30:29.521Z,152739.02
2019-03-06T14:32:57.960Z,152724.53
2019-03-06T14:35:26.983Z,152723.22
2019-03-06T14:37:55.505Z,152716.69
2019-03-06T14:40:34.574Z,152723.22
2019-03-06T14:43:05.424Z,152727.19
2019-03-06T14:45:34.055Z,152714.02
2019-03-06T14:48:02.844Z,152717.98
2019-03-06T14:50:31.378Z,152704.81
2019-03-06T14:53:00.232Z,152706.16
2019-03-06T14:55:28.700Z,152720.61
2019-03-06T14:57:57.206Z,152704.81
2019-03-06T15:00:25.663Z,152712.70
2019-03-06T15:02:54.143Z,152694.30
2019-03-06T15:05:22.873Z,152689.06
2019-03-06T15:07:54.618Z,152696.95
2019-03-06T15:10:23.143Z,152683.78
2019-03-06T15:12:51.621Z,152686.44
2019-03-06T15:15:20.750Z,152691.69
2019-03-06T15:17:49.671Z,152673.27
2019-03-06T15:20:28.532Z,152670.66
2019-03-06T15:22:58.142Z,152668.03
2019-03-06T15:25:30.563Z,152670.66
2019-03-06T15:27:59.172Z,152656.22
2019-03-06T15:30:27.690Z,152661.44
2019-03-06T15:32:56.166Z,152661.44
2019-03-06T15:35:24.684Z,152650.94
2019-03-06T15:37:53.252Z,152644.39
2019-03-06T15:40:28.202Z,152636.50
2019-03-06T15:42:56.785Z,152619.41
2019-03-06T15:45:27.009Z,152614.17
2019-03-06T15:47:55.956Z,152600.98
2019-03-06T15:50:24.587Z,152597.06
2019-03-06T15:52:53.137Z,152589.13
2019-03-06T15:55:26.072Z,152576.00
2019-03-06T15:57:54.701Z,152570.72
2019-03-06T16:00:46.384Z,152573.38
2019-03-06T16:03:11.879Z,152557.59
2019-03-06T16:05:40.397Z,152557.59
2019-03-06T16:08:10.930Z,152545.78
2019-03-06T16:10:40.319Z,152536.58
2019-03-06T16:13:09.180Z,152531.34
2019-03-06T16:15:37.631Z,152526.06
2019-03-06T16:18:08.054Z,152518.17
2019-03-06T16:20:36.601Z,152509.03
2019-03-06T16:23:05.428Z,152501.13
2019-03-06T16:25:37.305Z,152494.55
2019-03-06T16:28:04.454Z,152502.44
2019-03-06T16:30:32.986Z,152476.14
2019-03-06T16:33:01.645Z,152476.14
2019-03-06T16:35:30.190Z,152470.91
2019-03-06T16:37:59.257Z,152463.02
2019-03-06T16:40:28.007Z,152459.09
2019-03-06T16:42:56.617Z,152452.52
2019-03-06T16:45:29.995Z,152443.31
2019-03-06T16:47:59.768Z,152447.28
2019-03-06T16:50:28.272Z,152442.00
2019-03-06T16:52:56.899Z,152435.44
2019-03-06T16:55:26.402Z,152431.50
2019-03-06T16:57:55.812Z,152424.92
2019-03-06T17:00:35.732Z,152413.11
2019-03-06T17:03:09.463Z,152410.50
2019-03-06T17:05:38.537Z,152403.91
2019-03-06T17:08:07.482Z,152400.00
2019-03-06T17:10:38.259Z,152397.38
2019-03-06T17:13:07.212Z,152384.22
2019-03-06T17:15:35.836Z,152380.30
2019-03-06T17:18:04.552Z,152371.09
2019-03-06T17:20:34.856Z,152363.20
2019-03-06T17:23:03.668Z,152352.70
2019-03-06T17:25:33.172Z,152355.38
2019-03-06T17:28:01.654Z,152346.17
2019-03-06T17:30:32.462Z,152339.59
2019-03-06T17:33:06.574Z,152343.56
2019-03-06T17:35:35.874Z,152336.97
2019-03-06T17:38:05.812Z,152321.19
2019-03-06T17:40:34.278Z,152313.36
2019-03-06T17:43:03.118Z,152309.39
2019-03-06T17:45:31.579Z,152300.19
2019-03-06T17:48:00.460Z,152296.28
2019-03-06T17:50:29.082Z,152293.66
2019-03-06T17:52:57.689Z,152287.08
2019-03-06T17:55:26.246Z,152271.36
2019-03-06T17:57:54.775Z,152271.36
2019-03-06T18:00:29.814Z,152260.86
2019-03-06T18:02:59.366Z,152258.19
2019-03-06T18:05:28.027Z,152250.36
2019-03-06T18:07:56.562Z,152241.17
2019-03-06T18:10:25.089Z,152237.19
2019-03-06T18:12:53.644Z,152229.31
2019-03-06T18:15:22.187Z,152226.70
2019-03-06T18:17:50.648Z,152224.09
2019-03-06T18:20:19.410Z,152220.17
2019-03-06T18:22:47.936Z,152213.59
2019-03-06T18:25:21.555Z,152208.31
2019-03-06T18:27:50.024Z,152203.09
2019-03-06T18:30:19.747Z,152200.48
2019-03-06T18:32:48.848Z,152195.22
2019-03-06T18:35:18.462Z,152197.81
2019-03-06T18:37:46.919Z,152195.22
2019-03-06T18:40:25.743Z,152187.33
2019-03-06T18:42:55.091Z,152187.33
2019-03-06T18:45:23.726Z,152189.98
2019-03-06T18:47:52.255Z,152184.66
2019-03-06T18:50:25.281Z,152182.05
2019-03-06T18:52:53.746Z,152187.33
2019-03-06T18:55:22.383Z,152183.34
2019-03-06T18:57:50.924Z,152180.75
2019-03-06T19:00:30.638Z,152182.05
2019-03-06T19:02:59.187Z,152178.12
2019-03-06T19:05:27.681Z,152182.05
2019-03-06T19:07:56.167Z,152171.56
2019-03-06T19:10:25.592Z,152174.16
2019-03-06T19:12:54.612Z,152168.94
2019-03-06T19:15:29.951Z,152167.64
2019-03-06T19:17:58.409Z,152171.56
2019-03-06T19:20:27.084Z,152167.64
2019-03-06T19:22:56.040Z,152163.67
2019-03-06T19:25:24.826Z,152164.97
2019-03-06T19:27:53.297Z,152163.67
2019-03-06T19:30:23.154Z,152166.28
2019-03-06T19:32:51.856Z,152164.97
2019-03-06T19:35:22.359Z,152164.97
2019-03-06T19:37:51.108Z,152163.67
2019-03-06T19:40:20.270Z,152168.94
2019-03-06T19:42:48.735Z,152166.28
2019-03-06T19:45:24.119Z,152170.25
2019-03-06T19:47:52.818Z,152168.94
2019-03-06T19:50:22.821Z,152168.94
2019-03-06T19:52:51.434Z,152166.28
2019-03-06T19:55:20.632Z,152163.67
2019-03-06T19:58:06.206Z,152163.67
2019-03-06T20:00:35.453Z,152168.94
2019-03-06T20:03:06.127Z,152163.67
2019-03-06T20:05:36.987Z,152163.67
2019-03-06T20:08:10.504Z,152168.94
2019-03-06T20:10:39.539Z,152171.56
2019-03-06T20:13:08.760Z,152171.56
2019-03-06T20:15:38.308Z,152170.25
2019-03-06T20:18:07.181Z,152171.56
2019-03-06T20:20:35.842Z,152172.86
2019-03-06T20:23:04.485Z,152172.86
2019-03-06T20:25:34.499Z,152175.47
2019-03-06T20:28:04.600Z,152176.78
2019-03-06T20:30:33.173Z,152182.05
2019-03-06T20:33:01.657Z,152179.44
2019-03-06T20:35:30.203Z,152180.75
2019-03-06T20:37:59.040Z,152182.05
2019-03-06T20:40:27.580Z,152187.33
2019-03-06T20:42:56.104Z,152187.33
2019-03-06T20:45:24.611Z,152184.66
2019-03-06T20:47:53.068Z,152185.97
2019-03-06T20:50:22.044Z,152184.66
2019-03-06T20:52:50.700Z,152185.97
2019-03-06T20:55:20.867Z,152187.33
2019-03-06T20:57:49.337Z,152183.34
2019-03-06T21:00:26.496Z,152184.66
2019-03-06T21:02:55.020Z,152180.75
2019-03-06T21:05:23.690Z,152185.97
2019-03-06T21:07:52.250Z,152183.34
2019-03-06T21:10:21.250Z,152179.44
2019-03-06T21:12:49.804Z,152179.44
2019-03-06T21:15:19.642Z,152179.44
2019-03-06T21:17:48.157Z,152172.86
2019-03-06T21:20:22.671Z,152171.56
2019-03-06T21:22:51.257Z,152180.75
2019-03-06T21:25:20.677Z,152176.78
2019-03-06T21:27:49.471Z,152176.78
2019-03-06T21:30:22.654Z,152192.59
2019-03-06T21:32:51.139Z,152180.75
2019-03-06T21:35:19.598Z,152182.05
2019-03-06T21:37:48.103Z,152182.05
2019-03-06T21:40:17.608Z,152183.34
2019-03-06T21:42:46.379Z,152180.75
2019-03-06T21:45:15.684Z,152203.09
2019-03-06T21:47:44.173Z,152187.33
2019-03-06T21:50:14.929Z,152205.70
2019-03-06T21:52:43.434Z,152187.33
2019-03-06T21:55:14.127Z,152188.67
2019-03-06T21:57:42.695Z,152182.05
2019-03-06T22:00:19.631Z,152176.78
2019-03-06T22:02:48.185Z,152182.05
2019-03-06T22:05:16.816Z,152174.16
2019-03-06T22:07:45.851Z,152210.97
2019-03-06T22:10:16.426Z,152185.97
2019-03-06T22:12:45.214Z,152183.34
2019-03-06T22:15:21.136Z,152178.12
2019-03-06T22:17:49.720Z,152179.44
2019-03-06T22:20:18.452Z,152182.05
2019-03-06T22:22:47.038Z,152176.78
2019-03-06T22:25:16.839Z,152179.44
2019-03-06T22:27:45.403Z,152176.78
2019-03-06T22:30:16.679Z,152174.16
2019-03-06T22:32:45.194Z,152174.16
2019-03-06T22:35:14.312Z,152171.56
2019-03-06T22:37:42.800Z,152172.86
2019-03-06T22:40:17.012Z,152182.05
2019-03-06T22:42:45.499Z,152179.44
2019-03-06T22:45:20.781Z,152179.44
2019-03-06T22:47:49.291Z,152182.05
2019-03-06T22:50:18.891Z,152182.05
2019-03-06T22:52:47.505Z,152178.12
2019-03-06T22:55:20.767Z,152182.05
2019-03-06T22:57:49.389Z,152185.97
2019-03-06T23:00:29.526Z,152174.16
2019-03-06T23:02:58.465Z,152176.78
2019-03-06T23:05:29.154Z,152182.05
2019-03-06T23:07:57.649Z,152184.66
2019-03-06T23:10:26.283Z,152187.33
2019-03-06T23:12:54.782Z,152182.05
2019-03-06T23:15:23.325Z,152187.33
2019-03-06T23:17:51.827Z,152184.66
2019-03-06T23:20:20.290Z,152184.66
2019-03-06T23:22:48.762Z,152189.98
2019-03-06T23:25:18.197Z,152189.98
2019-03-06T23:27:47.063Z,152195.22
2019-03-06T23:30:17.165Z,152195.22
2019-03-06T23:32:46.050Z,152197.81
2019-03-06T23:35:14.533Z,152195.22
2019-03-06T23:37:43.013Z,152196.52
2019-03-06T23:40:12.266Z,152197.81
2019-03-06T23:42:40.731Z,152196.52
2019-03-06T23:45:11.634Z,152195.22
2019-03-06T23:47:40.408Z,152192.59
2019-03-06T23:50:10.543Z,152192.59
2019-03-06T23:52:56.892Z,152189.98
2019-03-06T23:55:26.244Z,152176.78
2019-03-06T23:57:55.107Z,152187.33
